Time;durP1;ratioP1;P1;durP2;ratioP2;P2;SDS_P1;SDS_P2;PMS_P1;PMS_P2;Temp;Humidity;BMP_temperature;BMP_pressure;BME280_temperature;BME280_humidity;BME280_pressure;Samples;Min_cycle;Max_cycle;Signal;HPM_P1;HPM_P2
2023/03/12 00:02:12;;;;;;;;;;;;;;;7.22;100.00;99290.19;5037454;28;19912;-68
2023/03/12 00:04:38;;;;;;;;;;;;;;;7.08;100.00;99304.28;5090196;28;19915;-68
2023/03/12 00:07:05;;;;;;;;;;;;;;;7.12;100.00;99298.41;5089698;28;20010;-68
2023/03/12 00:09:33;;;;;;;;;;;;;;;6.93;100.00;99310.66;5089642;28;19954;-68
2023/03/12 00:11:58;;;;;;;;;;;;;;;6.92;100.00;99315.75;5088524;28;19908;-68
2023/03/12 00:14:23;;;;;;;;;;;;;;;6.90;100.00;99314.81;5089883;28;19907;-68
2023/03/12 00:16:49;;;;;;;;;;;;;;;6.98;100.00;99321.09;5089382;28;19912;-68
2023/03/12 00:19:14;;;;;;;;;;;;;;;6.84;100.00;99312.03;5089671;28;19934;-67
2023/03/12 00:21:39;;;;;;;;;;;;;;;6.85;100.00;99314.66;5089025;28;19912;-68
2023/03/12 00:24:06;;;;;;;;;;;;;;;6.82;100.00;99329.97;5089120;28;19920;-67
2023/03/12 00:26:31;;;;;;;;;;;;;;;6.66;100.00;99333.69;5087372;28;19915;-68
2023/03/12 00:28:57;;;;;;;;;;;;;;;6.66;100.00;99330.28;5085123;28;20348;-68
2023/03/12 00:31:25;;;;;;;;;;;;;;;6.63;100.00;99344.72;5078799;28;19938;-68
2023/03/12 00:33:51;;;;;;;;;;;;;;;6.67;100.00;99340.56;5084399;28;19919;-69
2023/03/12 00:36:17;;;;;;;;;;;;;;;6.64;100.00;99341.34;5082146;28;19908;-68
2023/03/12 00:38:43;;;;;;;;;;;;;;;6.73;100.00;99351.03;5087103;28;20396;-68
2023/03/12 00:41:08;;;;;;;;;;;;;;;6.75;100.00;99357.09;5089923;28;19903;-68
2023/03/12 00:43:33;;;;;;;;;;;;;;;6.79;100.00;99355.50;5089764;28;19912;-68
2023/03/12 00:45:59;;;;;;;;;;;;;;;6.92;100.00;99356.81;5090462;28;19908;-68
2023/03/12 00:48:24;;;;;;;;;;;;;;;7.00;100.00;99357.91;5089963;28;19946;-69
2023/03/12 00:50:49;;;;;;;;;;;;;;;7.09;100.00;99352.19;5089187;28;19936;-69
2023/03/12 00:53:15;;;;;;;;;;;;;;;7.16;100.00;99345.59;5090268;28;19912;-69
2023/03/12 00:55:40;;;;;;;;;;;;;;;7.24;99.41;99345.03;5089770;28;19915;-69
2023/03/12 00:58:05;;;;;;;;;;;;;;;7.27;99.22;99357.09;5089828;28;19954;-69
2023/03/12 01:00:31;;;;;;;;;;;;;;;7.24;98.60;99363.00;5091001;28;20528;-69
2023/03/12 01:02:56;;;;;;;;;;;;;;;7.13;98.83;99362.63;5088238;28;19908;-68
2023/03/12 01:05:22;;;;;;;;;;;;;;;7.01;100.00;99369.91;5092278;28;19923;-69
2023/03/12 01:07:47;;;;;;;;;;;;;;;6.92;99.06;99378.19;5093956;28;19935;-68
2023/03/12 01:10:14;;;;;;;;;;;;;;;6.73;100.00;99376.69;5074881;28;19964;-69
2023/03/12 01:12:39;;;;;;;;;;;;;;;6.71;100.00;99378.31;5088904;28;19952;-68
2023/03/12 01:15:05;;;;;;;;;;;;;;;6.78;100.00;99385.41;5093387;28;20448;-69
2023/03/12 01:17:30;;;;;;;;;;;;;;;6.70;100.00;99378.28;5093853;28;20372;-68
2023/03/12 01:19:56;;;;;;;;;;;;;;;6.69;100.00;99381.66;5074899;28;19962;-69
2023/03/12 01:22:21;;;;;;;;;;;;;;;6.69;100.00;99390.25;5093020;28;19998;-69
2023/03/12 01:24:47;;;;;;;;;;;;;;;6.83;100.00;99392.38;5093741;28;20005;-67
2023/03/12 01:27:12;;;;;;;;;;;;;;;6.68;100.00;99397.84;5093477;28;19915;-68
2023/03/12 01:29:37;;;;;;;;;;;;;;;6.61;100.00;99400.19;5093119;28;19917;-68
2023/03/12 01:32:03;;;;;;;;;;;;;;;6.83;100.00;99400.09;5064399;28;19913;-68
2023/03/12 01:34:29;;;;;;;;;;;;;;;6.94;99.04;99404.78;5089104;28;19920;-67
2023/03/12 01:36:55;;;;;;;;;;;;;;;7.01;98.61;99400.72;5090616;28;20711;-67
2023/03/12 01:39:20;;;;;;;;;;;;;;;7.15;98.08;99393.47;5091555;28;19923;-67
2023/03/12 01:41:45;;;;;;;;;;;;;;;7.40;97.36;99396.84;5083125;28;19911;-68
2023/03/12 01:44:14;;;;;;;;;;;;;;;7.47;96.51;99416.78;5092647;28;19908;-68
2023/03/12 01:46:42;;;;;;;;;;;;;;;7.53;96.01;99408.41;5093338;28;19916;-68
2023/03/12 01:49:10;;;;;;;;;;;;;;;7.53;95.35;99411.84;5092120;28;20003;-68
2023/03/12 01:51:35;;;;;;;;;;;;;;;7.44;94.88;99409.00;5092445;28;19918;-68
2023/03/12 01:54:04;;;;;;;;;;;;;;;7.34;94.35;99401.78;5092880;28;19908;-68
2023/03/12 01:56:31;;;;;;;;;;;;;;;7.06;86.91;99406.00;5093241;28;19911;-68
2023/03/12 01:58:59;;;;;;;;;;;;;;;7.11;89.57;99417.31;5092917;28;19915;-68
2023/03/12 02:01:24;;;;;;;;;;;;;;;7.17;88.31;99430.34;5074944;28;19908;-68
2023/03/12 02:03:51;;;;;;;;;;;;;;;7.22;87.79;99436.50;5092632;28;19922;-68
2023/03/12 02:06:20;;;;;;;;;;;;;;;7.20;88.06;99452.69;5093187;28;19947;-68
2023/03/12 02:08:46;;;;;;;;;;;;;;;7.08;87.63;99460.84;5092123;28;19908;-68
2023/03/12 02:11:12;;;;;;;;;;;;;;;7.16;87.87;99459.41;5092130;28;19943;-68
2023/03/12 02:13:37;;;;;;;;;;;;;;;7.06;85.40;99463.34;5092632;28;20388;-68
2023/03/12 02:16:03;;;;;;;;;;;;;;;6.97;85.52;99461.31;5092289;28;19914;-68
2023/03/12 02:18:28;;;;;;;;;;;;;;;6.97;84.64;99458.75;5091669;28;19912;-68
2023/03/12 02:20:56;;;;;;;;;;;;;;;6.99;84.69;99466.53;5092596;28;20003;-68
2023/03/12 02:23:27;;;;;;;;;;;;;;;6.87;84.53;99473.78;5091984;28;19916;-68
2023/03/12 02:25:54;;;;;;;;;;;;;;;6.85;84.31;99471.16;5092790;28;19912;-68
2023/03/12 02:28:22;;;;;;;;;;;;;;;6.80;82.83;99475.25;5092364;28;19966;-68
2023/03/12 02:30:49;;;;;;;;;;;;;;;6.46;84.51;99467.19;5091971;28;19919;-68
2023/03/12 02:33:15;;;;;;;;;;;;;;;6.29;85.40;99469.13;5074398;28;19954;-67
2023/03/12 02:35:40;;;;;;;;;;;;;;;6.22;87.36;99467.16;5092126;28;19947;-67
2023/03/12 02:38:24;;;;;;;;;;;;;;;6.35;88.57;99472.75;5092550;28;19915;-68
2023/03/12 02:40:51;;;;;;;;;;;;;;;6.46;89.65;99481.72;5091686;28;19916;-67
2023/03/12 02:43:17;;;;;;;;;;;;;;;6.51;90.72;99489.59;5092027;28;19915;-68
2023/03/12 02:45:43;;;;;;;;;;;;;;;6.60;90.74;99492.47;5091482;28;19963;-68
2023/03/12 02:48:08;;;;;;;;;;;;;;;6.69;90.74;99487.69;5092158;28;20345;-68
2023/03/12 02:50:33;;;;;;;;;;;;;;;6.64;91.36;99494.31;5073644;28;19912;-68
2023/03/12 02:52:59;;;;;;;;;;;;;;;6.50;92.06;99485.25;5092013;28;19947;-68
2023/03/12 02:55:24;;;;;;;;;;;;;;;6.54;92.49;99498.28;5091500;28;19915;-68
2023/03/12 02:57:49;;;;;;;;;;;;;;;6.42;92.86;99500.38;5091745;28;19962;-68
2023/03/12 03:00:15;;;;;;;;;;;;;;;6.59;92.25;99508.66;5090383;28;19908;-68
2023/03/12 03:02:41;;;;;;;;;;;;;;;6.22;93.53;99517.53;5091501;28;19914;-68
2023/03/12 03:05:06;;;;;;;;;;;;;;;5.98;95.29;99514.06;5091961;28;19961;-68
2023/03/12 03:07:32;;;;;;;;;;;;;;;5.76;97.13;99529.34;5091281;28;19931;-67
2023/03/12 03:10:02;;;;;;;;;;;;;;;5.78;97.13;99522.59;5091556;28;19951;-67
2023/03/12 03:12:28;;;;;;;;;;;;;;;5.72;96.75;99528.34;5091092;28;20350;-67
2023/03/12 03:14:53;;;;;;;;;;;;;;;5.59;95.94;99526.94;5091205;28;19940;-67
2023/03/12 03:17:19;;;;;;;;;;;;;;;5.53;95.17;99536.94;5091378;28;19930;-67
2023/03/12 03:19:44;;;;;;;;;;;;;;;5.52;94.41;99540.34;5091302;28;19904;-67
2023/03/12 03:22:09;;;;;;;;;;;;;;;5.60;93.13;99538.94;5090527;28;19939;-67
2023/03/12 03:24:35;;;;;;;;;;;;;;;5.61;92.02;99553.50;5091108;28;19916;-67
2023/03/12 03:27:00;;;;;;;;;;;;;;;5.61;91.58;99550.09;5091085;28;20376;-68
2023/03/12 03:29:25;;;;;;;;;;;;;;;5.21;91.49;99559.50;5090819;28;19969;-67
2023/03/12 03:31:51;;;;;;;;;;;;;;;4.98;92.99;99561.88;5038177;28;19919;-67
2023/03/12 03:34:16;;;;;;;;;;;;;;;4.79;93.36;99560.19;5090831;28;19915;-67
2023/03/12 03:36:41;;;;;;;;;;;;;;;4.52;94.64;99558.13;5091329;28;20400;-67
2023/03/12 03:39:07;;;;;;;;;;;;;;;4.49;95.26;99569.91;5091077;28;19919;-67
2023/03/12 03:41:32;;;;;;;;;;;;;;;4.48;95.33;99575.81;5090883;28;20266;-67
2023/03/12 03:43:58;;;;;;;;;;;;;;;4.48;94.97;99576.66;5090414;28;20638;-67
2023/03/12 03:46:23;;;;;;;;;;;;;;;4.42;94.23;99578.94;5090801;28;19916;-67
2023/03/12 03:48:49;;;;;;;;;;;;;;;4.31;95.05;99582.66;5090357;28;19912;-67
2023/03/12 03:51:15;;;;;;;;;;;;;;;4.20;94.24;99594.94;5090964;28;19915;-67
2023/03/12 03:53:40;;;;;;;;;;;;;;;4.16;93.96;99596.47;5090805;28;19900;-66
2023/03/12 03:56:07;;;;;;;;;;;;;;;4.18;93.59;99601.66;5090950;28;19912;-67
2023/03/12 03:58:32;;;;;;;;;;;;;;;4.07;92.90;99606.22;5090187;28;20082;-68
2023/03/12 04:00:57;;;;;;;;;;;;;;;4.13;92.69;99605.66;5091175;28;19998;-68
2023/03/12 04:03:22;;;;;;;;;;;;;;;4.18;91.95;99610.19;5072716;28;19957;-68
2023/03/12 04:05:53;;;;;;;;;;;;;;;4.19;92.08;99616.19;5091183;28;19912;-68
2023/03/12 04:08:18;;;;;;;;;;;;;;;4.20;92.10;99615.38;5090868;28;20407;-68
2023/03/12 04:10:43;;;;;;;;;;;;;;;4.14;92.07;99622.75;5090962;28;19963;-68
2023/03/12 04:13:08;;;;;;;;;;;;;;;4.18;92.08;99630.63;5091001;28;19912;-68
2023/03/12 04:15:34;;;;;;;;;;;;;;;4.17;92.33;99631.41;5090731;28;19912;-68
2023/03/12 04:17:59;;;;;;;;;;;;;;;4.03;92.44;99630.75;5090987;28;19908;-68
2023/03/12 04:20:24;;;;;;;;;;;;;;;4.11;92.03;99627.69;5090640;28;20054;-68
2023/03/12 04:22:50;;;;;;;;;;;;;;;3.78;92.87;99633.75;5090802;28;19912;-68
2023/03/12 04:25:16;;;;;;;;;;;;;;;3.98;92.67;99634.75;5090421;28;19916;-68
2023/03/12 04:27:41;;;;;;;;;;;;;;;3.78;93.03;99649.06;5091003;28;20407;-68
2023/03/12 04:30:07;;;;;;;;;;;;;;;3.81;92.31;99656.00;5090984;28;19959;-68
2023/03/12 04:32:33;;;;;;;;;;;;;;;3.98;91.55;99657.72;5088329;28;20338;-69
2023/03/12 04:34:58;;;;;;;;;;;;;;;4.11;90.67;99673.66;5093136;28;20358;-68
2023/03/12 04:37:24;;;;;;;;;;;;;;;4.12;89.42;99675.44;5095063;28;19908;-68
2023/03/12 04:39:49;;;;;;;;;;;;;;;4.17;89.53;99673.97;5094198;28;19908;-68
2023/03/12 04:42:14;;;;;;;;;;;;;;;4.28;87.58;99687.28;5093206;28;19912;-69
2023/03/12 04:44:40;;;;;;;;;;;;;;;4.24;86.94;99695.59;5094570;28;19947;-68
2023/03/12 04:47:05;;;;;;;;;;;;;;;4.19;87.63;99693.69;5094636;28;19985;-68
2023/03/12 04:49:31;;;;;;;;;;;;;;;4.17;86.25;99692.72;5094827;28;20027;-68
2023/03/12 04:51:56;;;;;;;;;;;;;;;3.98;86.69;99695.19;5094239;28;20578;-68
2023/03/12 04:54:21;;;;;;;;;;;;;;;3.67;87.79;99697.00;5093615;28;19911;-68
2023/03/12 04:56:47;;;;;;;;;;;;;;;3.61;88.19;99699.25;5072310;28;19912;-69
2023/03/12 04:59:12;;;;;;;;;;;;;;;3.42;88.66;99704.19;5072974;28;19951;-68
2023/03/12 05:01:38;;;;;;;;;;;;;;;3.46;88.62;99719.72;5073122;28;19908;-68
2023/03/12 05:04:03;;;;;;;;;;;;;;;3.41;88.64;99718.63;5073158;28;19943;-68
2023/03/12 05:06:29;;;;;;;;;;;;;;;3.45;88.86;99719.66;5073355;28;19909;-68
2023/03/12 05:08:54;;;;;;;;;;;;;;;3.47;88.65;99723.19;5073045;28;19908;-68
2023/03/12 05:11:20;;;;;;;;;;;;;;;3.37;89.09;99722.66;5072774;28;19908;-69
2023/03/12 05:13:45;;;;;;;;;;;;;;;3.49;88.97;99734.31;5072603;28;19908;-68
2023/03/12 05:16:11;;;;;;;;;;;;;;;3.54;88.52;99731.22;5072977;28;19908;-68
2023/03/12 05:18:36;;;;;;;;;;;;;;;3.66;87.52;99736.09;5072967;28;20042;-68
2023/03/12 05:21:06;;;;;;;;;;;;;;;3.71;85.96;99731.25;5072862;28;20338;-68
2023/03/12 05:23:32;;;;;;;;;;;;;;;3.67;86.12;99745.50;5072915;28;19916;-68
2023/03/12 05:25:57;;;;;;;;;;;;;;;3.81;86.07;99753.03;5072639;28;19912;-68
2023/03/12 05:28:27;;;;;;;;;;;;;;;3.93;86.04;99755.34;5073011;28;19913;-68
2023/03/12 05:30:53;;;;;;;;;;;;;;;3.86;85.52;99764.34;5073286;28;20026;-70
2023/03/12 05:33:18;;;;;;;;;;;;;;;3.99;85.92;99761.66;5073627;28;19932;-68
2023/03/12 05:35:43;;;;;;;;;;;;;;;4.00;84.63;99773.63;5089275;28;20325;-67
2023/03/12 05:38:09;;;;;;;;;;;;;;;3.94;84.32;99768.19;5093120;28;19908;-68
2023/03/12 05:40:34;;;;;;;;;;;;;;;4.12;83.85;99775.91;5093441;28;20334;-67
2023/03/12 05:42:59;;;;;;;;;;;;;;;4.34;82.66;99787.25;5092519;28;19912;-67
2023/03/12 05:45:25;;;;;;;;;;;;;;;4.57;82.22;99792.66;5092688;28;19927;-68
2023/03/12 05:47:50;;;;;;;;;;;;;;;4.54;81.57;99799.34;5093514;28;19908;-68
2023/03/12 05:50:15;;;;;;;;;;;;;;;4.60;81.52;99788.56;5092366;28;19970;-68
2023/03/12 05:52:41;;;;;;;;;;;;;;;4.65;82.02;99802.44;5093460;28;19908;-68
2023/03/12 05:55:06;;;;;;;;;;;;;;;4.69;81.92;99799.22;5093388;28;19911;-68
2023/03/12 05:57:31;;;;;;;;;;;;;;;4.83;81.12;99816.94;5093426;28;19916;-67
2023/03/12 05:59:57;;;;;;;;;;;;;;;4.81;80.51;99824.56;5093136;28;19908;-68
2023/03/12 06:02:22;;;;;;;;;;;;;;;4.99;80.23;99833.94;5093299;28;20048;-68
2023/03/12 06:05:08;;;;;;;;;;;;;;;5.12;79.58;99849.09;5092991;28;19912;-68
2023/03/12 06:07:33;;;;;;;;;;;;;;;5.14;79.67;99839.78;5049991;28;19909;-68
2023/03/12 06:09:58;;;;;;;;;;;;;;;5.12;78.71;99833.72;5050309;28;19909;-68
2023/03/12 06:12:24;;;;;;;;;;;;;;;5.09;78.38;99848.06;5016781;28;19908;-68
2023/03/12 06:14:49;;;;;;;;;;;;;;;5.20;78.83;99852.00;5033388;28;19950;-67
2023/03/12 06:17:14;;;;;;;;;;;;;;;5.27;78.03;99860.84;5050172;28;20279;-68
2023/03/12 06:19:39;;;;;;;;;;;;;;;5.29;77.79;99867.78;5050179;28;19908;-69
2023/03/12 06:22:05;;;;;;;;;;;;;;;5.33;77.85;99872.28;5049899;28;20366;-66
2023/03/12 06:24:30;;;;;;;;;;;;;;;5.39;78.62;99875.94;5049819;28;19962;-69
2023/03/12 06:26:55;;;;;;;;;;;;;;;5.57;76.35;99889.63;5049725;28;19908;-69
2023/03/12 06:29:20;;;;;;;;;;;;;;;5.78;75.49;99891.41;5049786;28;19909;-68
2023/03/12 06:31:47;;;;;;;;;;;;;;;5.90;74.55;99897.13;5049931;28;19946;-69
2023/03/12 06:34:12;;;;;;;;;;;;;;;5.90;72.88;99902.25;5049762;28;20392;-68
2023/03/12 06:36:38;;;;;;;;;;;;;;;5.87;71.36;99908.91;5049064;28;19912;-68
2023/03/12 06:39:07;;;;;;;;;;;;;;;5.80;72.35;99910.31;5073467;28;19912;-68
2023/03/12 06:41:32;;;;;;;;;;;;;;;5.98;72.73;99912.84;5092338;28;19919;-68
2023/03/12 06:43:59;;;;;;;;;;;;;;;6.20;71.80;99912.19;5092049;28;19908;-68
2023/03/12 06:46:24;;;;;;;;;;;;;;;6.27;71.26;99919.34;5073684;28;19915;-67
2023/03/12 06:48:50;;;;;;;;;;;;;;;6.26;68.40;99932.97;5091677;28;19908;-68
2023/03/12 06:51:16;;;;;;;;;;;;;;;6.34;69.65;99941.00;5091436;28;20007;-68
2023/03/12 06:53:41;;;;;;;;;;;;;;;6.49;71.13;99943.38;5091956;28;20069;-68
2023/03/12 06:56:07;;;;;;;;;;;;;;;6.54;67.98;99948.72;5091813;28;19908;-68
2023/03/12 07:01:35;;;;;;;;;;;;;;;6.70;66.06;99945.16;5190597;22;19926;-68
2023/03/12 07:04:00;;;;;;;;;;;;;;;6.92;65.11;99942.69;5132570;27;19911;-68
2023/03/12 07:06:26;;;;;;;;;;;;;;;7.01;63.69;99954.19;5133053;27;19911;-67
2023/03/12 07:08:51;;;;;;;;;;;;;;;7.26;61.87;99964.69;5132852;27;19911;-68
2023/03/12 07:11:17;;;;;;;;;;;;;;;7.20;61.00;99953.25;5133541;27;19915;-67
2023/03/12 07:13:42;;;;;;;;;;;;;;;7.39;60.03;99957.47;5132894;27;19914;-67
2023/03/12 07:16:08;;;;;;;;;;;;;;;7.33;59.65;99958.09;5133143;27;19919;-67
2023/03/12 07:18:33;;;;;;;;;;;;;;;7.46;59.35;99951.78;5132887;27;19911;-68
2023/03/12 07:20:59;;;;;;;;;;;;;;;7.65;60.42;99957.66;5133084;27;19912;-68
2023/03/12 07:23:26;;;;;;;;;;;;;;;7.88;58.82;99956.88;5132150;27;20087;-67
2023/03/12 07:25:52;;;;;;;;;;;;;;;8.28;58.65;99967.84;5131872;27;19907;-67
2023/03/12 07:28:18;;;;;;;;;;;;;;;8.25;56.94;99968.59;5131560;27;19940;-68
2023/03/12 07:30:49;;;;;;;;;;;;;;;8.28;58.16;99972.13;5131011;27;20017;-68
2023/03/12 07:33:15;;;;;;;;;;;;;;;8.43;57.86;99965.84;5131301;27;20006;-67
2023/03/12 07:35:40;;;;;;;;;;;;;;;8.56;56.97;99969.78;5131442;27;19911;-67
2023/03/12 07:38:06;;;;;;;;;;;;;;;8.65;55.21;99969.25;5128034;27;20281;-67
2023/03/12 07:40:31;;;;;;;;;;;;;;;8.65;54.62;99979.53;5131573;27;19951;-67
2023/03/12 07:42:57;;;;;;;;;;;;;;;8.66;52.79;99976.16;5131456;27;19912;-67
2023/03/12 07:45:23;;;;;;;;;;;;;;;8.86;53.51;99965.69;5131418;27;20293;-67
2023/03/12 07:47:49;;;;;;;;;;;;;;;8.76;54.98;99972.22;5131507;27;19960;-67
2023/03/12 07:50:15;;;;;;;;;;;;;;;8.84;53.74;99970.78;5131360;27;19960;-67
2023/03/12 07:52:41;;;;;;;;;;;;;;;8.74;52.72;99971.28;5132729;27;19918;-68
2023/03/12 07:55:07;;;;;;;;;;;;;;;8.84;52.57;99982.78;5132842;27;19907;-67
2023/03/12 07:57:32;;;;;;;;;;;;;;;8.73;53.06;99979.81;5132868;27;20395;-67
2023/03/12 07:59:57;;;;;;;;;;;;;;;8.93;54.88;99974.53;5132528;27;19955;-67
2023/03/12 08:02:22;;;;;;;;;;;;;;;9.07;51.90;99966.47;5132807;27;19922;-67
2023/03/12 08:04:48;;;;;;;;;;;;;;;9.18;50.93;99976.25;5121469;27;19923;-68
2023/03/12 08:07:13;;;;;;;;;;;;;;;9.17;50.11;99975.38;5092123;28;19915;-68
2023/03/12 08:09:40;;;;;;;;;;;;;;;9.18;48.41;99969.41;5111395;28;19912;-68
2023/03/12 08:12:06;;;;;;;;;;;;;;;9.34;46.93;99967.34;5111973;28;20262;-68
2023/03/12 08:14:32;;;;;;;;;;;;;;;9.33;46.21;99976.78;5111917;28;19912;-67
2023/03/12 08:16:57;;;;;;;;;;;;;;;9.25;45.41;99977.34;5112096;28;19912;-67
2023/03/12 08:19:23;;;;;;;;;;;;;;;9.14;44.40;99967.53;5111833;28;19916;-67
2023/03/12 08:21:52;;;;;;;;;;;;;;;9.20;45.85;99959.16;5106469;28;19919;-67
2023/03/12 08:24:18;;;;;;;;;;;;;;;9.31;46.27;99977.53;5100265;28;19912;-67
2023/03/12 08:26:43;;;;;;;;;;;;;;;9.42;44.02;99980.47;5090956;28;20052;-67
2023/03/12 08:29:08;;;;;;;;;;;;;;;9.49;44.80;99985.03;5091073;28;20011;-67
2023/03/12 08:31:34;;;;;;;;;;;;;;;9.75;46.45;99979.88;5091248;28;20309;-67
2023/03/12 08:33:59;;;;;;;;;;;;;;;9.99;45.65;99977.16;5091214;28;19916;-67
2023/03/12 08:36:25;;;;;;;;;;;;;;;10.27;47.83;99980.59;5092508;28;20809;-67
2023/03/12 08:38:50;;;;;;;;;;;;;;;10.38;47.07;99991.28;5110983;28;19919;-67
2023/03/12 08:41:15;;;;;;;;;;;;;;;10.16;43.57;99994.03;5091027;28;20049;-67
2023/03/12 08:43:40;;;;;;;;;;;;;;;10.14;42.77;99985.41;5091273;28;19907;-67
2023/03/12 08:46:06;;;;;;;;;;;;;;;10.31;43.34;99992.78;5090312;28;20290;-67
2023/03/12 08:48:31;;;;;;;;;;;;;;;10.18;46.96;99994.09;5090985;28;19904;-67
2023/03/12 08:50:57;;;;;;;;;;;;;;;10.36;48.71;99988.66;5108555;28;19911;-67
2023/03/12 08:53:23;;;;;;;;;;;;;;;10.19;48.14;99990.69;5111317;28;19916;-67
2023/03/12 08:55:51;;;;;;;;;;;;;;;10.32;47.31;99997.97;5111070;28;19911;-67
2023/03/12 08:58:16;;;;;;;;;;;;;;;10.45;47.90;100006.13;5091539;28;19973;-67
2023/03/12 09:00:41;;;;;;;;;;;;;;;10.38;46.51;100004.19;5110677;28;19924;-67
2023/03/12 09:03:07;;;;;;;;;;;;;;;10.59;47.17;99998.78;5111498;28;20351;-68
2023/03/12 09:05:33;;;;;;;;;;;;;;;10.67;45.96;100003.34;5110994;28;19910;-68
2023/03/12 09:07:58;;;;;;;;;;;;;;;10.89;46.39;99995.31;5110876;28;19916;-67
2023/03/12 09:10:24;;;;;;;;;;;;;;;10.87;48.17;100002.16;5110665;28;19926;-67
2023/03/12 09:12:49;;;;;;;;;;;;;;;10.32;45.71;100000.56;5098114;28;19912;-67
2023/03/12 09:15:14;;;;;;;;;;;;;;;10.52;45.98;99998.59;5090566;28;19915;-67
2023/03/12 09:17:40;;;;;;;;;;;;;;;10.54;46.57;100000.34;5090138;28;19912;-67
2023/03/12 09:20:07;;;;;;;;;;;;;;;10.62;47.56;100016.97;5090555;28;19912;-67
2023/03/12 09:22:35;;;;;;;;;;;;;;;10.75;45.17;100020.75;5105392;27;19944;-69
2023/03/12 09:25:01;;;;;;;;;;;;;;;10.89;47.05;100009.13;5103392;27;19916;-66
2023/03/12 09:27:26;;;;;;;;;;;;;;;10.69;46.27;100008.53;5103449;27;19911;-68
2023/03/12 09:29:52;;;;;;;;;;;;;;;10.83;47.16;100007.22;5114122;28;20004;-68
2023/03/12 09:32:17;;;;;;;;;;;;;;;10.86;46.68;100010.75;5113940;28;19912;-68
2023/03/12 09:34:43;;;;;;;;;;;;;;;11.04;46.50;100012.94;5113915;28;19911;-68
2023/03/12 09:37:08;;;;;;;;;;;;;;;11.31;43.28;99998.22;5113751;28;20383;-68
2023/03/12 09:39:34;;;;;;;;;;;;;;;11.45;46.61;100003.75;5107062;28;19908;-68
2023/03/12 09:41:59;;;;;;;;;;;;;;;11.31;43.39;100013.72;5111029;28;19911;-68
2023/03/12 09:44:38;;;;;;;;;;;;;;;11.44;42.88;100014.00;5113528;28;20002;-66
2023/03/12 09:47:42;;;;;;;;;;;;;;;11.74;44.03;100011.34;5113426;28;19916;-67
2023/03/12 09:50:26;;;;;;;;;;;;;;;12.01;41.76;100009.44;5047303;28;19916;-67
2023/03/12 09:52:57;;;;;;;;;;;;;;;11.53;42.32;100016.00;5050316;28;20381;-66
2023/03/12 09:55:23;;;;;;;;;;;;;;;11.67;42.60;100013.75;5051971;28;19912;-68
2023/03/12 09:57:50;;;;;;;;;;;;;;;11.54;41.42;100018.59;5057683;28;19912;-68
2023/03/12 10:00:22;;;;;;;;;;;;;;;11.43;42.29;100022.63;5049948;28;19924;-67
2023/03/12 10:02:48;;;;;;;;;;;;;;;11.42;42.01;100026.91;5027111;28;19917;-68
2023/03/12 10:05:19;;;;;;;;;;;;;;;11.52;42.24;100022.84;5045074;28;19928;-68
2023/03/12 10:07:52;;;;;;;;;;;;;;;11.87;40.64;100024.59;5058359;28;19920;-68
2023/03/12 10:10:36;;;;;;;;;;;;;;;11.73;43.40;100025.13;5051657;28;19919;-67
2023/03/12 10:13:19;;;;;;;;;;;;;;;11.89;42.51;100028.09;5059518;28;20038;-68
2023/03/12 10:16:03;;;;;;;;;;;;;;;12.03;45.40;100026.72;5050019;28;19912;-68
2023/03/12 10:18:30;;;;;;;;;;;;;;;12.27;41.18;100035.91;5049881;28;20023;-68
2023/03/12 10:21:08;;;;;;;;;;;;;;;12.51;40.36;100034.72;5071620;28;20583;-69
2023/03/12 10:23:39;;;;;;;;;;;;;;;12.79;38.99;100033.59;5100445;28;20266;-68
2023/03/12 10:26:09;;;;;;;;;;;;;;;12.92;39.43;100042.47;5094310;28;19915;-68
2023/03/12 10:28:42;;;;;;;;;;;;;;;12.93;38.35;100037.34;5112971;28;19917;-68
2023/03/12 10:31:27;;;;;;;;;;;;;;;13.06;40.94;100038.47;5112311;28;19911;-68
2023/03/12 10:33:57;;;;;;;;;;;;;;;13.00;40.21;100035.75;5111801;28;20339;-68
2023/03/12 10:36:43;;;;;;;;;;;;;;;13.05;40.20;100035.84;5112063;28;19922;-68
2023/03/12 10:39:16;;;;;;;;;;;;;;;12.72;41.31;100040.38;5111868;28;19925;-68
2023/03/12 10:41:43;;;;;;;;;;;;;;;12.77;41.51;100030.97;5112624;28;19991;-68
2023/03/12 10:44:13;;;;;;;;;;;;;;;12.71;41.19;100036.03;5112608;28;19961;-68
2023/03/12 10:46:38;;;;;;;;;;;;;;;12.59;40.10;100007.28;5111726;28;20385;-68
2023/03/12 10:49:21;;;;;;;;;;;;;;;12.50;42.55;100038.13;5112328;28;19966;-68
2023/03/12 10:51:53;;;;;;;;;;;;;;;12.36;39.50;100030.06;5100087;28;19998;-69
2023/03/12 10:54:26;;;;;;;;;;;;;;;12.45;40.22;100028.56;5112194;28;19912;-68
2023/03/12 10:56:52;;;;;;;;;;;;;;;12.72;41.31;100030.00;5112442;28;19961;-68
2023/03/12 10:59:21;;;;;;;;;;;;;;;13.02;39.10;100023.69;5118349;28;19912;-67
2023/03/12 11:01:48;;;;;;;;;;;;;;;12.54;41.62;99962.28;5112463;28;19955;-69
2023/03/12 11:04:16;;;;;;;;;;;;;;;12.95;39.89;100025.28;5111905;28;20002;-68
2023/03/12 11:06:41;;;;;;;;;;;;;;;12.95;39.88;100022.69;5112314;28;19908;-67
2023/03/12 11:09:17;;;;;;;;;;;;;;;13.09;39.42;100020.38;5093591;28;20353;-67
2023/03/12 11:11:44;;;;;;;;;;;;;;;13.29;38.81;100019.88;5111716;28;20341;-67
2023/03/12 11:14:09;;;;;;;;;;;;;;;13.12;37.91;100016.97;5111108;28;20331;-67
2023/03/12 11:16:34;;;;;;;;;;;;;;;13.23;39.02;100022.34;5112055;28;19912;-67
2023/03/12 11:19:02;;;;;;;;;;;;;;;13.30;39.44;100021.63;5111657;28;19960;-68
2023/03/12 11:21:29;;;;;;;;;;;;;;;13.52;41.10;100024.63;5111911;28;19911;-67
2023/03/12 11:23:57;;;;;;;;;;;;;;;13.59;37.76;100022.19;5111873;28;19919;-68
2023/03/12 11:26:27;;;;;;;;;;;;;;;13.08;40.04;100013.47;5111317;28;19912;-67
2023/03/12 11:29:00;;;;;;;;;;;;;;;12.52;38.79;100023.50;5082550;28;19988;-68
2023/03/12 11:31:30;;;;;;;;;;;;;;;12.40;39.74;100016.34;5082317;28;19916;-68
2023/03/12 11:33:58;;;;;;;;;;;;;;;12.54;39.36;100011.47;5085478;28;19947;-70
2023/03/12 11:36:41;;;;;;;;;;;;;;;12.24;38.65;100020.31;5079505;28;19916;-68
2023/03/12 11:39:11;;;;;;;;;;;;;;;12.46;39.97;100027.72;5088435;28;20065;-68
2023/03/12 11:41:54;;;;;;;;;;;;;;;12.95;37.81;100017.50;5088332;28;19922;-68
2023/03/12 11:44:20;;;;;;;;;;;;;;;13.44;36.56;100016.72;5088214;28;19919;-68
2023/03/12 11:46:57;;;;;;;;;;;;;;;13.54;36.48;100023.81;5088817;28;19915;-67
2023/03/12 11:49:25;;;;;;;;;;;;;;;13.12;38.97;100027.31;5080023;28;19920;-69
2023/03/12 11:52:04;;;;;;;;;;;;;;;12.46;38.99;100025.13;5088323;28;19935;-68
2023/03/12 11:54:29;;;;;;;;;;;;;;;12.25;39.47;100037.56;5075901;28;19908;-66
2023/03/12 11:56:57;;;;;;;;;;;;;;;12.13;39.33;100031.28;5088087;28;19912;-68
2023/03/12 11:59:26;;;;;;;;;;;;;;;12.26;38.62;100028.97;5095006;28;19912;-67
2023/03/12 12:02:11;;;;;;;;;;;;;;;12.86;37.64;100016.44;5085295;28;19955;-68
2023/03/12 12:04:39;;;;;;;;;;;;;;;13.17;38.80;100022.22;5104012;27;19915;-68
2023/03/12 12:07:14;;;;;;;;;;;;;;;13.05;37.74;100022.88;5118066;27;19912;-68
2023/03/12 12:09:40;;;;;;;;;;;;;;;12.95;38.60;100022.69;5104671;27;19969;-68
2023/03/12 12:12:31;;;;;;;;;;;;;;;12.56;39.09;100031.38;5110145;28;19994;-68
2023/03/12 12:14:56;;;;;;;;;;;;;;;13.04;37.12;100029.78;5046400;28;20063;-68
2023/03/12 12:17:30;;;;;;;;;;;;;;;13.07;37.92;100034.13;5047300;28;19920;-67
2023/03/12 12:20:08;;;;;;;;;;;;;;;13.05;37.07;100036.72;5044654;28;20508;-68
2023/03/12 12:23:00;;;;;;;;;;;;;;;13.05;36.74;100033.25;5025682;28;20016;-68
2023/03/12 12:25:36;;;;;;;;;;;;;;;12.77;38.44;100046.50;5025870;28;20453;-67
2023/03/12 12:28:20;;;;;;;;;;;;;;;12.80;36.72;100032.75;5026488;28;19921;-68
2023/03/12 12:31:03;;;;;;;;;;;;;;;12.92;39.59;100038.19;5025544;28;20426;-68
2023/03/12 12:33:40;;;;;;;;;;;;;;;12.79;37.98;100033.59;5028514;28;19917;-68
2023/03/12 12:36:08;;;;;;;;;;;;;;;12.72;38.33;100036.88;5028511;28;19908;-68
2023/03/12 12:38:38;;;;;;;;;;;;;;;12.66;39.49;100044.53;5028485;28;19952;-67
2023/03/12 12:41:09;;;;;;;;;;;;;;;12.36;37.89;100051.66;5028493;28;19909;-68
2023/03/12 12:43:43;;;;;;;;;;;;;;;12.18;37.60;100051.22;5028341;28;19945;-67
2023/03/12 12:46:14;;;;;;;;;;;;;;;12.40;39.74;100057.75;5028435;28;19963;-68
2023/03/12 12:48:39;;;;;;;;;;;;;;;12.78;40.68;100050.88;5028399;28;20461;-67
2023/03/12 12:51:06;;;;;;;;;;;;;;;13.07;39.22;100057.47;5032642;28;19913;-68
2023/03/12 12:53:37;;;;;;;;;;;;;;;13.06;39.94;100050.53;5048198;28;19991;-68
2023/03/12 12:56:17;;;;;;;;;;;;;;;13.00;40.69;100056.47;5051277;28;19928;-67